createdAt,value
2023-04-10T00:00:02.587Z,1018.4
2023-04-10T00:15:03.149Z,1018.1
2023-04-10T00:30:02.474Z,1018.0
2023-04-10T00:45:03.077Z,1018.0
2023-04-10T01:00:02.356Z,1017.8
2023-04-10T01:15:02.771Z,1017.7
2023-04-10T01:30:02.185Z,1017.7
2023-04-10T01:45:02.660Z,1017.8
2023-04-10T02:00:03.298Z,1017.6
2023-04-10T02:15:02.552Z,1017.1
2023-04-10T02:30:03.193Z,1017.4
2023-04-10T02:45:02.415Z,1017.2
2023-04-10T03:00:02.847Z,1017.2
2023-04-10T03:15:02.286Z,1017.0
2023-04-10T03:30:02.736Z,1016.7
2023-04-10T03:45:03.197Z,1016.8
2023-04-10T04:00:02.621Z,1016.8
2023-04-10T04:15:03.180Z,1016.7
2023-04-10T04:45:02.936Z,1016.9
2023-04-10T05:00:02.391Z,1016.8
2023-04-10T05:15:02.819Z,1016.8
2023-04-10T05:30:02.274Z,1016.7
2023-04-10T05:45:02.711Z,1016.5
2023-04-10T06:00:03.217Z,1016.5
2023-04-10T06:15:02.623Z,1016.4
2023-04-10T06:30:03.217Z,1016.4
2023-04-10T06:45:02.449Z,1016.3
2023-04-10T07:00:03.174Z,1016.2
2023-04-10T07:15:02.319Z,1016.1
2023-04-10T07:30:02.729Z,1015.9
2023-04-10T07:45:03.253Z,1015.6
2023-04-10T08:00:02.698Z,1015.4
2023-04-10T08:15:03.259Z,1015.3
2023-04-10T08:30:02.550Z,1015.1
2023-04-10T08:45:02.947Z,1014.9
2023-04-10T09:00:16.108Z,1014.6
2023-04-10T09:15:02.810Z,1014.4
2023-04-10T09:30:02.275Z,1014.0
2023-04-10T09:45:02.720Z,1013.8
2023-04-10T10:00:03.276Z,1013.6
2023-04-10T10:15:02.586Z,1013.3
2023-04-10T10:30:11.871Z,1013.1
2023-04-10T10:45:02.467Z,1012.9
2023-04-10T11:00:02.906Z,1012.7
2023-04-10T11:15:02.487Z,1012.3
2023-04-10T11:30:02.818Z,1012.0
2023-04-10T11:45:02.280Z,1011.8
2023-04-10T12:00:02.666Z,1011.5
2023-04-10T12:15:03.280Z,1011.2
2023-04-10T12:30:02.518Z,1010.9
2023-04-10T12:45:02.984Z,1010.6
2023-04-10T13:00:02.449Z,1010.5
2023-04-10T13:15:02.924Z,1010.2
2023-04-10T13:30:02.322Z,1009.9
2023-04-10T13:45:02.764Z,1009.4
2023-04-10T14:00:03.299Z,1009.1
2023-04-10T14:15:02.582Z,1008.9
2023-04-10T14:30:03.284Z,1008.6
2023-04-10T14:45:02.509Z,1008.1
2023-04-10T15:00:02.918Z,1007.9
2023-04-10T15:15:02.391Z,1007.5
2023-04-10T15:30:02.802Z,1007.2
2023-04-10T15:45:03.317Z,1007.1
2023-04-10T16:00:02.809Z,1007.0
2023-04-10T16:15:02.319Z,1006.8
2023-04-10T16:30:02.646Z,1006.6
2023-04-10T16:45:03.036Z,1006.4
2023-04-10T17:00:02.515Z,1006.1
2023-04-10T17:15:02.907Z,1005.6
2023-04-10T17:30:02.365Z,1005.3
2023-04-10T17:45:02.789Z,1004.9
2023-04-10T18:00:03.338Z,1004.8
2023-04-10T18:15:02.702Z,1004.9
2023-04-10T18:30:03.355Z,1005.4
2023-04-10T18:45:02.560Z,1005.8
2023-04-10T19:00:03.004Z,1006.3
2023-04-10T19:15:02.436Z,1005.8
2023-04-10T19:30:02.907Z,1005.5
2023-04-10T19:45:02.369Z,1005.2
2023-04-10T20:00:02.754Z,1005.0
2023-04-10T20:15:03.363Z,1005.0
2023-04-10T20:30:02.624Z,1005.1
2023-04-10T20:45:03.088Z,1004.8
2023-04-10T21:00:02.509Z,1004.4
2023-04-10T21:15:02.995Z,1004.5
2023-04-10T21:30:02.400Z,1004.1
2023-04-10T21:45:02.846Z,1004.4
2023-04-10T22:00:02.408Z,1003.9
2023-04-10T22:15:02.692Z,1003.4
2023-04-10T22:30:04.517Z,1003.3
2023-04-10T22:45:03.617Z,1003.2
2023-04-10T23:00:03.050Z,1003.3
2023-04-10T23:15:02.482Z,1003.3
2023-04-10T23:30:02.927Z,1002.9
2023-04-10T23:45:02.409Z,1002.8
